KPIR/PIR METAR and TAF weather

Enter ICAO airport designator
Station Type Date Time Source
KPIR METAR 2019/12/07 14:53 UTC NOAA

KPIR 071453Z AUTO 15008KT 10SM CLR M03/M04 A2984 RMK AO2 SLP126 I3000 T10281039 58030


Station Type Date Time Source
KPIR Decoded METAR 2019/12/07 14:53 UTC NOAA

PIERRE REGIONAL AIRPORT, SD, United States (KPIR) 44-23N 100-17W 526M
Dec 07, 2019 - 09:53 AM EST / 2019.12.07 1453 UTC
Wind: from the SSE (150 degrees) at 9 MPH (8 KT):0
Visibility: 10 mile(s):0
Sky conditions: clear
Temperature: 27.0 F (-2.8 C)
Windchill: 17 F (-8 C):1
Dew Point: 25.0 F (-3.9 C)
Relative Humidity: 92%
Pressure (altimeter): 29.84 in. Hg (1010 hPa)
Pressure tendency: 0.09 inches (3.0 hPa) lower than three hours ago
ob: KPIR 071453Z AUTO 15008KT 10SM CLR M03/M04 A2984 RMK AO2 SLP126 I3000 T10281039 58030
cycle: 15

Station Type Date Time Source
KPIR TAF 2019/12/07 12:22 UTC NOAA

TAF KPIR 071120Z 0712/0812 13005KT P6SM BKN200
FM080000 27008KT P6SM SCT200

Example: see airport list